sensor_id;sensor_type;location;lat;lon;timestamp;P1;durP1;ratioP1;P2;durP2;ratioP2
24739;SDS011;45234;48.148;17.128;2024-03-02T00:01:05;45.00;;;30.80;;
24739;SDS011;45234;48.148;17.128;2024-03-02T00:03:33;47.55;;;31.52;;
24739;SDS011;45234;48.148;17.128;2024-03-02T00:06:00;39.83;;;28.20;;
24739;SDS011;45234;48.148;17.128;2024-03-02T00:08:27;44.97;;;30.23;;
24739;SDS011;45234;48.148;17.128;2024-03-02T00:10:58;42.35;;;28.80;;
24739;SDS011;45234;48.148;17.128;2024-03-02T00:13:26;39.88;;;28.83;;
24739;SDS011;45234;48.148;17.128;2024-03-02T00:15:55;41.38;;;29.38;;
24739;SDS011;45234;48.148;17.128;2024-03-02T00:18:27;43.47;;;31.52;;
24739;SDS011;45234;48.148;17.128;2024-03-02T00:20:58;49.65;;;30.95;;
24739;SDS011;45234;48.148;17.128;2024-03-02T00:23:31;42.72;;;31.83;;
24739;SDS011;45234;48.148;17.128;2024-03-02T00:25:59;41.15;;;28.20;;
24739;SDS011;45234;48.148;17.128;2024-03-02T00:28:27;43.95;;;30.70;;
24739;SDS011;45234;48.148;17.128;2024-03-02T00:31:08;47.13;;;31.65;;
24739;SDS011;45234;48.148;17.128;2024-03-02T00:36:08;44.75;;;30.50;;
24739;SDS011;45234;48.148;17.128;2024-03-02T00:38:47;44.45;;;30.00;;
24739;SDS011;45234;48.148;17.128;2024-03-02T00:41:36;44.28;;;30.17;;
24739;SDS011;45234;48.148;17.128;2024-03-02T00:44:06;40.03;;;29.67;;
24739;SDS011;45234;48.148;17.128;2024-03-02T00:46:35;45.13;;;31.70;;
24739;SDS011;45234;48.148;17.128;2024-03-02T00:49:04;39.22;;;30.38;;
24739;SDS011;45234;48.148;17.128;2024-03-02T00:51:37;38.50;;;28.85;;
24739;SDS011;45234;48.148;17.128;2024-03-02T00:54:05;44.22;;;31.77;;
24739;SDS011;45234;48.148;17.128;2024-03-02T00:56:33;39.33;;;28.27;;
24739;SDS011;45234;48.148;17.128;2024-03-02T00:59:01;45.47;;;30.30;;
24739;SDS011;45234;48.148;17.128;2024-03-02T01:01:28;44.03;;;31.60;;
24739;SDS011;45234;48.148;17.128;2024-03-02T01:03:54;45.08;;;31.23;;
24739;SDS011;45234;48.148;17.128;2024-03-02T01:06:21;42.70;;;29.40;;
24739;SDS011;45234;48.148;17.128;2024-03-02T01:08:48;41.50;;;29.98;;
24739;SDS011;45234;48.148;17.128;2024-03-02T01:11:18;42.78;;;29.55;;
24739;SDS011;45234;48.148;17.128;2024-03-02T01:13:48;41.05;;;27.60;;
24739;SDS011;45234;48.148;17.128;2024-03-02T01:16:16;40.28;;;29.45;;
24739;SDS011;45234;48.148;17.128;2024-03-02T01:18:43;44.50;;;29.25;;
24739;SDS011;45234;48.148;17.128;2024-03-02T01:21:10;42.58;;;30.60;;
24739;SDS011;45234;48.148;17.128;2024-03-02T01:23:37;43.80;;;29.83;;
24739;SDS011;45234;48.148;17.128;2024-03-02T01:26:04;45.95;;;30.80;;
24739;SDS011;45234;48.148;17.128;2024-03-02T01:28:31;45.33;;;31.63;;
24739;SDS011;45234;48.148;17.128;2024-03-02T01:30:58;47.22;;;32.30;;
24739;SDS011;45234;48.148;17.128;2024-03-02T01:33:25;45.95;;;31.25;;
24739;SDS011;45234;48.148;17.128;2024-03-02T01:35:52;50.88;;;32.20;;
24739;SDS011;45234;48.148;17.128;2024-03-02T01:38:18;48.33;;;33.10;;
24739;SDS011;45234;48.148;17.128;2024-03-02T01:40:46;49.85;;;33.88;;
24739;SDS011;45234;48.148;17.128;2024-03-02T01:43:13;51.50;;;33.58;;
24739;SDS011;45234;48.148;17.128;2024-03-02T01:45:39;49.38;;;32.55;;
24739;SDS011;45234;48.148;17.128;2024-03-02T01:48:06;49.60;;;34.13;;
24739;SDS011;45234;48.148;17.128;2024-03-02T01:50:34;52.17;;;33.85;;
24739;SDS011;45234;48.148;17.128;2024-03-02T01:53:01;49.17;;;35.28;;
24739;SDS011;45234;48.148;17.128;2024-03-02T01:55:29;49.58;;;31.67;;
24739;SDS011;45234;48.148;17.128;2024-03-02T01:57:56;47.72;;;32.25;;
24739;SDS011;45234;48.148;17.128;2024-03-02T02:00:24;46.35;;;33.03;;
24739;SDS011;45234;48.148;17.128;2024-03-02T02:02:53;49.83;;;32.47;;
24739;SDS011;45234;48.148;17.128;2024-03-02T02:05:20;53.78;;;34.67;;
24739;SDS011;45234;48.148;17.128;2024-03-02T02:07:47;49.38;;;33.10;;
24739;SDS011;45234;48.148;17.128;2024-03-02T02:10:14;53.80;;;33.63;;
24739;SDS011;45234;48.148;17.128;2024-03-02T02:12:43;53.60;;;33.47;;
24739;SDS011;45234;48.148;17.128;2024-03-02T02:15:26;50.72;;;32.97;;
24739;SDS011;45234;48.148;17.128;2024-03-02T02:17:54;53.92;;;34.70;;
24739;SDS011;45234;48.148;17.128;2024-03-02T02:20:42;58.00;;;35.80;;
24739;SDS011;45234;48.148;17.128;2024-03-02T02:23:09;53.53;;;35.58;;
24739;SDS011;45234;48.148;17.128;2024-03-02T02:25:36;57.08;;;36.67;;
24739;SDS011;45234;48.148;17.128;2024-03-02T02:28:02;55.25;;;34.58;;
24739;SDS011;45234;48.148;17.128;2024-03-02T02:30:30;54.03;;;34.15;;
24739;SDS011;45234;48.148;17.128;2024-03-02T02:32:58;52.03;;;35.97;;
24739;SDS011;45234;48.148;17.128;2024-03-02T02:35:25;54.53;;;33.50;;
24739;SDS011;45234;48.148;17.128;2024-03-02T02:37:53;52.03;;;34.75;;
24739;SDS011;45234;48.148;17.128;2024-03-02T02:40:21;53.60;;;34.30;;
24739;SDS011;45234;48.148;17.128;2024-03-02T02:42:48;54.25;;;36.45;;
24739;SDS011;45234;48.148;17.128;2024-03-02T02:45:15;56.75;;;37.35;;
24739;SDS011;45234;48.148;17.128;2024-03-02T02:47:43;49.50;;;33.63;;
24739;SDS011;45234;48.148;17.128;2024-03-02T02:50:11;58.10;;;37.03;;
24739;SDS011;45234;48.148;17.128;2024-03-02T02:52:39;52.92;;;36.13;;
24739;SDS011;45234;48.148;17.128;2024-03-02T02:55:10;54.33;;;35.50;;
24739;SDS011;45234;48.148;17.128;2024-03-02T02:57:39;61.88;;;37.05;;
24739;SDS011;45234;48.148;17.128;2024-03-02T03:00:08;66.93;;;39.50;;
24739;SDS011;45234;48.148;17.128;2024-03-02T03:02:43;57.60;;;36.15;;
24739;SDS011;45234;48.148;17.128;2024-03-02T03:05:13;62.30;;;37.35;;
24739;SDS011;45234;48.148;17.128;2024-03-02T03:07:41;55.20;;;37.88;;
24739;SDS011;45234;48.148;17.128;2024-03-02T03:10:10;61.63;;;36.97;;
24739;SDS011;45234;48.148;17.128;2024-03-02T03:12:37;60.13;;;38.42;;
24739;SDS011;45234;48.148;17.128;2024-03-02T03:15:06;65.93;;;38.38;;
24739;SDS011;45234;48.148;17.128;2024-03-02T03:17:34;65.88;;;39.42;;
24739;SDS011;45234;48.148;17.128;2024-03-02T03:20:03;61.60;;;38.92;;
24739;SDS011;45234;48.148;17.128;2024-03-02T03:22:32;60.33;;;38.40;;
24739;SDS011;45234;48.148;17.128;2024-03-02T03:24:58;61.00;;;39.78;;
24739;SDS011;45234;48.148;17.128;2024-03-02T03:27:26;65.80;;;39.80;;
24739;SDS011;45234;48.148;17.128;2024-03-02T03:29:53;71.68;;;40.90;;
24739;SDS011;45234;48.148;17.128;2024-03-02T03:32:20;68.18;;;40.05;;
24739;SDS011;45234;48.148;17.128;2024-03-02T03:34:47;77.03;;;43.53;;
24739;SDS011;45234;48.148;17.128;2024-03-02T03:37:14;77.50;;;43.42;;
24739;SDS011;45234;48.148;17.128;2024-03-02T03:39:41;69.57;;;41.25;;
24739;SDS011;45234;48.148;17.128;2024-03-02T03:42:08;66.90;;;42.28;;
24739;SDS011;45234;48.148;17.128;2024-03-02T03:44:35;73.00;;;41.95;;
24739;SDS011;45234;48.148;17.128;2024-03-02T03:47:02;67.60;;;41.05;;
24739;SDS011;45234;48.148;17.128;2024-03-02T03:49:29;70.45;;;42.83;;
24739;SDS011;45234;48.148;17.128;2024-03-02T03:51:56;68.78;;;42.55;;
24739;SDS011;45234;48.148;17.128;2024-03-02T03:54:23;75.13;;;45.33;;
24739;SDS011;45234;48.148;17.128;2024-03-02T03:56:50;65.93;;;42.05;;
24739;SDS011;45234;48.148;17.128;2024-03-02T03:59:16;68.95;;;44.30;;
24739;SDS011;45234;48.148;17.128;2024-03-02T04:01:43;73.32;;;42.97;;
24739;SDS011;45234;48.148;17.128;2024-03-02T04:04:10;65.13;;;41.55;;
24739;SDS011;45234;48.148;17.128;2024-03-02T04:06:37;70.82;;;41.30;;
24739;SDS011;45234;48.148;17.128;2024-03-02T04:09:03;65.88;;;38.90;;
24739;SDS011;45234;48.148;17.128;2024-03-02T04:11:30;62.38;;;37.00;;
24739;SDS011;45234;48.148;17.128;2024-03-02T04:13:57;54.85;;;34.03;;
24739;SDS011;45234;48.148;17.128;2024-03-02T04:16:24;56.05;;;33.55;;
24739;SDS011;45234;48.148;17.128;2024-03-02T04:18:51;58.40;;;34.42;;
24739;SDS011;45234;48.148;17.128;2024-03-02T04:21:18;49.90;;;34.00;;
24739;SDS011;45234;48.148;17.128;2024-03-02T04:23:45;50.05;;;31.92;;
24739;SDS011;45234;48.148;17.128;2024-03-02T04:26:11;51.53;;;32.15;;
24739;SDS011;45234;48.148;17.128;2024-03-02T04:28:38;46.55;;;31.20;;
24739;SDS011;45234;48.148;17.128;2024-03-02T04:31:05;50.25;;;31.92;;
24739;SDS011;45234;48.148;17.128;2024-03-02T04:33:32;50.20;;;32.33;;
24739;SDS011;45234;48.148;17.128;2024-03-02T04:35:58;50.22;;;33.20;;
24739;SDS011;45234;48.148;17.128;2024-03-02T04:38:25;50.50;;;32.70;;
24739;SDS011;45234;48.148;17.128;2024-03-02T04:40:52;48.33;;;32.45;;
24739;SDS011;45234;48.148;17.128;2024-03-02T04:43:19;53.13;;;33.75;;
24739;SDS011;45234;48.148;17.128;2024-03-02T04:45:46;52.17;;;33.05;;
24739;SDS011;45234;48.148;17.128;2024-03-02T04:48:12;53.22;;;33.70;;
24739;SDS011;45234;48.148;17.128;2024-03-02T04:50:40;50.42;;;33.10;;
24739;SDS011;45234;48.148;17.128;2024-03-02T04:53:07;59.88;;;34.78;;
24739;SDS011;45234;48.148;17.128;2024-03-02T04:55:33;52.40;;;33.05;;
24739;SDS011;45234;48.148;17.128;2024-03-02T04:58:01;60.20;;;34.95;;
24739;SDS011;45234;48.148;17.128;2024-03-02T05:00:28;64.75;;;36.40;;
24739;SDS011;45234;48.148;17.128;2024-03-02T05:02:54;58.88;;;36.85;;
24739;SDS011;45234;48.148;17.128;2024-03-02T05:05:21;51.33;;;34.17;;
24739;SDS011;45234;48.148;17.128;2024-03-02T05:07:48;51.33;;;33.55;;
24739;SDS011;45234;48.148;17.128;2024-03-02T05:10:15;51.38;;;33.63;;
24739;SDS011;45234;48.148;17.128;2024-03-02T05:12:42;54.45;;;34.95;;
24739;SDS011;45234;48.148;17.128;2024-03-02T05:15:09;58.20;;;35.10;;
24739;SDS011;45234;48.148;17.128;2024-03-02T05:17:37;52.67;;;32.83;;
24739;SDS011;45234;48.148;17.128;2024-03-02T05:20:11;55.58;;;35.85;;
24739;SDS011;45234;48.148;17.128;2024-03-02T05:22:38;53.05;;;34.55;;
24739;SDS011;45234;48.148;17.128;2024-03-02T05:25:06;53.10;;;35.30;;
24739;SDS011;45234;48.148;17.128;2024-03-02T05:27:33;56.20;;;36.13;;
24739;SDS011;45234;48.148;17.128;2024-03-02T05:30:00;61.63;;;37.13;;
24739;SDS011;45234;48.148;17.128;2024-03-02T05:32:27;55.95;;;36.85;;
24739;SDS011;45234;48.148;17.128;2024-03-02T05:34:54;55.28;;;38.47;;
24739;SDS011;45234;48.148;17.128;2024-03-02T05:37:21;55.40;;;35.85;;
24739;SDS011;45234;48.148;17.128;2024-03-02T05:39:48;58.55;;;34.67;;
24739;SDS011;45234;48.148;17.128;2024-03-02T05:42:15;58.10;;;37.13;;
24739;SDS011;45234;48.148;17.128;2024-03-02T05:44:45;57.17;;;36.40;;
24739;SDS011;45234;48.148;17.128;2024-03-02T05:47:12;59.20;;;36.58;;
24739;SDS011;45234;48.148;17.128;2024-03-02T05:49:39;58.40;;;35.83;;
24739;SDS011;45234;48.148;17.128;2024-03-02T05:52:06;52.58;;;34.53;;
24739;SDS011;45234;48.148;17.128;2024-03-02T05:54:32;50.35;;;34.42;;
24739;SDS011;45234;48.148;17.128;2024-03-02T05:56:59;57.13;;;35.25;;
24739;SDS011;45234;48.148;17.128;2024-03-02T05:59:42;59.50;;;35.65;;
24739;SDS011;45234;48.148;17.128;2024-03-02T06:02:09;57.92;;;35.65;;
24739;SDS011;45234;48.148;17.128;2024-03-02T06:04:36;50.30;;;35.45;;
24739;SDS011;45234;48.148;17.128;2024-03-02T06:07:03;61.97;;;36.00;;
24739;SDS011;45234;48.148;17.128;2024-03-02T06:09:30;54.38;;;35.40;;
24739;SDS011;45234;48.148;17.128;2024-03-02T06:11:57;54.80;;;35.65;;
24739;SDS011;45234;48.148;17.128;2024-03-02T06:14:24;52.88;;;35.47;;
24739;SDS011;45234;48.148;17.128;2024-03-02T06:16:50;53.67;;;34.50;;
24739;SDS011;45234;48.148;17.128;2024-03-02T06:19:17;59.33;;;34.50;;
24739;SDS011;45234;48.148;17.128;2024-03-02T06:21:44;46.75;;;33.25;;
24739;SDS011;45234;48.148;17.128;2024-03-02T06:24:11;51.92;;;33.53;;
24739;SDS011;45234;48.148;17.128;2024-03-02T06:26:37;55.63;;;33.70;;
24739;SDS011;45234;48.148;17.128;2024-03-02T06:29:05;53.55;;;32.58;;
24739;SDS011;45234;48.148;17.128;2024-03-02T06:31:32;49.72;;;32.15;;
24739;SDS011;45234;48.148;17.128;2024-03-02T06:33:59;58.25;;;35.70;;
24739;SDS011;45234;48.148;17.128;2024-03-02T06:36:26;55.83;;;34.38;;
24739;SDS011;45234;48.148;17.128;2024-03-02T06:38:53;54.85;;;34.72;;
24739;SDS011;45234;48.148;17.128;2024-03-02T06:41:19;53.33;;;34.30;;
24739;SDS011;45234;48.148;17.128;2024-03-02T06:43:46;54.28;;;33.70;;
24739;SDS011;45234;48.148;17.128;2024-03-02T06:46:13;51.22;;;33.10;;
24739;SDS011;45234;48.148;17.128;2024-03-02T06:48:41;51.75;;;32.80;;
24739;SDS011;45234;48.148;17.128;2024-03-02T06:51:08;52.35;;;32.05;;
24739;SDS011;45234;48.148;17.128;2024-03-02T06:53:34;54.35;;;34.38;;
24739;SDS011;45234;48.148;17.128;2024-03-02T06:56:01;46.13;;;30.83;;
24739;SDS011;45234;48.148;17.128;2024-03-02T06:58:28;50.75;;;30.10;;
24739;SDS011;45234;48.148;17.128;2024-03-02T07:00:55;45.58;;;30.73;;
24739;SDS011;45234;48.148;17.128;2024-03-02T07:03:21;49.28;;;31.55;;
24739;SDS011;45234;48.148;17.128;2024-03-02T07:05:49;47.33;;;31.70;;
24739;SDS011;45234;48.148;17.128;2024-03-02T07:08:16;45.45;;;30.38;;
24739;SDS011;45234;48.148;17.128;2024-03-02T07:10:43;49.47;;;32.03;;
24739;SDS011;45234;48.148;17.128;2024-03-02T07:13:09;47.15;;;30.83;;
24739;SDS011;45234;48.148;17.128;2024-03-02T07:15:36;45.95;;;31.33;;
24739;SDS011;45234;48.148;17.128;2024-03-02T07:18:22;46.08;;;30.35;;
24739;SDS011;45234;48.148;17.128;2024-03-02T07:20:49;46.08;;;30.63;;
24739;SDS011;45234;48.148;17.128;2024-03-02T07:23:15;45.33;;;29.73;;
24739;SDS011;45234;48.148;17.128;2024-03-02T07:25:42;45.13;;;30.65;;
24739;SDS011;45234;48.148;17.128;2024-03-02T07:28:12;44.38;;;30.23;;
24739;SDS011;45234;48.148;17.128;2024-03-02T07:30:40;50.60;;;32.55;;
24739;SDS011;45234;48.148;17.128;2024-03-02T07:33:07;46.97;;;31.65;;
24739;SDS011;45234;48.148;17.128;2024-03-02T07:35:34;54.60;;;34.28;;
24739;SDS011;45234;48.148;17.128;2024-03-02T07:38:00;50.05;;;32.30;;
24739;SDS011;45234;48.148;17.128;2024-03-02T07:40:27;51.45;;;34.53;;
24739;SDS011;45234;48.148;17.128;2024-03-02T07:42:54;46.72;;;30.67;;
24739;SDS011;45234;48.148;17.128;2024-03-02T07:45:21;53.45;;;33.10;;
24739;SDS011;45234;48.148;17.128;2024-03-02T07:47:48;64.88;;;34.55;;
24739;SDS011;45234;48.148;17.128;2024-03-02T07:50:16;52.63;;;34.47;;
24739;SDS011;45234;48.148;17.128;2024-03-02T07:52:43;51.10;;;34.22;;
24739;SDS011;45234;48.148;17.128;2024-03-02T07:55:10;48.28;;;33.13;;
24739;SDS011;45234;48.148;17.128;2024-03-02T07:57:36;48.80;;;32.15;;
24739;SDS011;45234;48.148;17.128;2024-03-02T08:00:03;53.85;;;34.63;;
24739;SDS011;45234;48.148;17.128;2024-03-02T08:02:36;55.17;;;33.65;;
24739;SDS011;45234;48.148;17.128;2024-03-02T08:05:03;47.63;;;31.10;;
24739;SDS011;45234;48.148;17.128;2024-03-02T08:07:30;49.17;;;34.00;;
24739;SDS011;45234;48.148;17.128;2024-03-02T08:09:57;51.33;;;32.80;;
24739;SDS011;45234;48.148;17.128;2024-03-02T08:12:24;47.45;;;32.70;;
24739;SDS011;45234;48.148;17.128;2024-03-02T08:14:50;53.33;;;36.97;;
24739;SDS011;45234;48.148;17.128;2024-03-02T08:17:17;53.28;;;36.92;;
24739;SDS011;45234;48.148;17.128;2024-03-02T08:19:47;56.28;;;35.63;;
24739;SDS011;45234;48.148;17.128;2024-03-02T08:22:14;53.25;;;35.38;;
24739;SDS011;45234;48.148;17.128;2024-03-02T08:24:41;53.70;;;35.83;;
24739;SDS011;45234;48.148;17.128;2024-03-02T08:27:09;54.90;;;37.08;;
24739;SDS011;45234;48.148;17.128;2024-03-02T08:29:36;52.75;;;34.72;;
24739;SDS011;45234;48.148;17.128;2024-03-02T08:32:03;49.38;;;34.05;;
24739;SDS011;45234;48.148;17.128;2024-03-02T08:34:30;49.17;;;32.88;;
24739;SDS011;45234;48.148;17.128;2024-03-02T08:36:57;52.58;;;33.80;;
24739;SDS011;45234;48.148;17.128;2024-03-02T08:39:24;50.05;;;32.70;;
24739;SDS011;45234;48.148;17.128;2024-03-02T08:41:51;47.10;;;31.60;;
24739;SDS011;45234;48.148;17.128;2024-03-02T08:44:18;48.80;;;32.22;;
24739;SDS011;45234;48.148;17.128;2024-03-02T08:46:45;45.53;;;32.30;;
24739;SDS011;45234;48.148;17.128;2024-03-02T08:49:12;46.30;;;30.63;;
24739;SDS011;45234;48.148;17.128;2024-03-02T08:51:39;47.95;;;34.17;;
24739;SDS011;45234;48.148;17.128;2024-03-02T08:54:06;47.60;;;33.95;;
24739;SDS011;45234;48.148;17.128;2024-03-02T08:56:33;48.30;;;31.52;;
24739;SDS011;45234;48.148;17.128;2024-03-02T08:59:00;49.67;;;33.53;;
24739;SDS011;45234;48.148;17.128;2024-03-02T09:01:27;49.45;;;31.58;;
24739;SDS011;45234;48.148;17.128;2024-03-02T09:03:54;42.65;;;30.90;;
24739;SDS011;45234;48.148;17.128;2024-03-02T09:06:21;44.97;;;31.92;;
24739;SDS011;45234;48.148;17.128;2024-03-02T09:08:48;43.83;;;31.42;;
24739;SDS011;45234;48.148;17.128;2024-03-02T09:11:17;45.35;;;31.60;;
24739;SDS011;45234;48.148;17.128;2024-03-02T09:13:44;45.80;;;30.27;;
24739;SDS011;45234;48.148;17.128;2024-03-02T09:16:12;39.45;;;27.50;;
24739;SDS011;45234;48.148;17.128;2024-03-02T09:18:39;43.90;;;28.52;;
24739;SDS011;45234;48.148;17.128;2024-03-02T09:21:06;42.15;;;27.98;;
24739;SDS011;45234;48.148;17.128;2024-03-02T09:23:33;44.90;;;30.05;;
24739;SDS011;45234;48.148;17.128;2024-03-02T09:26:00;37.63;;;27.75;;
24739;SDS011;45234;48.148;17.128;2024-03-02T09:28:27;38.50;;;27.80;;
24739;SDS011;45234;48.148;17.128;2024-03-02T09:30:53;36.10;;;26.60;;
24739;SDS011;45234;48.148;17.128;2024-03-02T09:33:26;35.67;;;27.98;;
24739;SDS011;45234;48.148;17.128;2024-03-02T09:35:53;35.80;;;27.33;;
24739;SDS011;45234;48.148;17.128;2024-03-02T09:38:20;39.10;;;27.67;;
24739;SDS011;45234;48.148;17.128;2024-03-02T09:40:47;39.05;;;28.08;;
24739;SDS011;45234;48.148;17.128;2024-03-02T09:43:14;45.42;;;27.48;;
24739;SDS011;45234;48.148;17.128;2024-03-02T09:45:41;41.00;;;29.10;;
24739;SDS011;45234;48.148;17.128;2024-03-02T09:48:08;39.25;;;28.45;;
24739;SDS011;45234;48.148;17.128;2024-03-02T09:50:35;38.38;;;28.17;;
24739;SDS011;45234;48.148;17.128;2024-03-02T09:53:02;37.22;;;28.27;;
24739;SDS011;45234;48.148;17.128;2024-03-02T09:55:29;38.05;;;28.73;;
24739;SDS011;45234;48.148;17.128;2024-03-02T09:57:56;40.15;;;29.92;;
24739;SDS011;45234;48.148;17.128;2024-03-02T10:00:23;42.00;;;30.67;;
24739;SDS011;45234;48.148;17.128;2024-03-02T10:02:51;43.33;;;32.15;;
24739;SDS011;45234;48.148;17.128;2024-03-02T10:05:25;45.53;;;31.75;;
24739;SDS011;45234;48.148;17.128;2024-03-02T10:08:02;42.13;;;30.98;;
24739;SDS011;45234;48.148;17.128;2024-03-02T10:10:36;47.60;;;31.50;;
24739;SDS011;45234;48.148;17.128;2024-03-02T10:13:06;47.05;;;30.38;;
24739;SDS011;45234;48.148;17.128;2024-03-02T10:15:34;41.47;;;28.02;;
24739;SDS011;45234;48.148;17.128;2024-03-02T10:18:06;41.92;;;28.38;;
24739;SDS011;45234;48.148;17.128;2024-03-02T10:20:39;40.05;;;28.15;;
24739;SDS011;45234;48.148;17.128;2024-03-02T10:23:13;45.60;;;30.58;;
24739;SDS011;45234;48.148;17.128;2024-03-02T10:25:42;44.00;;;29.35;;
24739;SDS011;45234;48.148;17.128;2024-03-02T10:28:22;46.17;;;30.17;;
24739;SDS011;45234;48.148;17.128;2024-03-02T10:30:49;42.58;;;30.17;;
24739;SDS011;45234;48.148;17.128;2024-03-02T10:33:19;47.22;;;30.52;;
24739;SDS011;45234;48.148;17.128;2024-03-02T10:35:46;53.30;;;34.28;;
24739;SDS011;45234;48.148;17.128;2024-03-02T10:38:15;43.90;;;30.98;;
24739;SDS011;45234;48.148;17.128;2024-03-02T10:40:46;40.03;;;29.20;;
24739;SDS011;45234;48.148;17.128;2024-03-02T10:43:14;41.08;;;29.50;;
24739;SDS011;45234;48.148;17.128;2024-03-02T10:45:42;42.13;;;29.05;;
24739;SDS011;45234;48.148;17.128;2024-03-02T10:48:11;44.08;;;28.50;;
24739;SDS011;45234;48.148;17.128;2024-03-02T10:50:38;41.67;;;28.48;;
24739;SDS011;45234;48.148;17.128;2024-03-02T10:53:05;39.97;;;27.73;;
24739;SDS011;45234;48.148;17.128;2024-03-02T10:55:31;42.95;;;29.20;;
24739;SDS011;45234;48.148;17.128;2024-03-02T10:57:59;42.65;;;28.80;;
24739;SDS011;45234;48.148;17.128;2024-03-02T11:00:33;44.03;;;29.05;;
24739;SDS011;45234;48.148;17.128;2024-03-02T11:03:07;39.65;;;27.10;;
24739;SDS011;45234;48.148;17.128;2024-03-02T11:05:38;40.17;;;29.23;;
24739;SDS011;45234;48.148;17.128;2024-03-02T11:08:09;41.83;;;29.20;;
24739;SDS011;45234;48.148;17.128;2024-03-02T11:10:50;41.70;;;30.02;;
24739;SDS011;45234;48.148;17.128;2024-03-02T11:13:32;44.67;;;30.98;;
24739;SDS011;45234;48.148;17.128;2024-03-02T11:16:05;48.47;;;33.17;;
24739;SDS011;45234;48.148;17.128;2024-03-02T11:18:36;48.60;;;32.30;;
24739;SDS011;45234;48.148;17.128;2024-03-02T11:21:06;45.80;;;32.13;;
24739;SDS011;45234;48.148;17.128;2024-03-02T11:23:34;47.92;;;33.05;;
24739;SDS011;45234;48.148;17.128;2024-03-02T11:26:19;50.00;;;32.58;;
24739;SDS011;45234;48.148;17.128;2024-03-02T11:28:49;52.45;;;34.83;;
24739;SDS011;45234;48.148;17.128;2024-03-02T11:31:15;51.50;;;34.50;;
24739;SDS011;45234;48.148;17.128;2024-03-02T11:33:42;50.80;;;35.15;;
24739;SDS011;45234;48.148;17.128;2024-03-02T11:36:09;53.90;;;36.15;;
24739;SDS011;45234;48.148;17.128;2024-03-02T11:38:37;53.22;;;35.28;;
24739;SDS011;45234;48.148;17.128;2024-03-02T11:41:07;53.05;;;36.72;;
24739;SDS011;45234;48.148;17.128;2024-03-02T11:43:38;57.75;;;36.05;;
24739;SDS011;45234;48.148;17.128;2024-03-02T11:46:05;52.53;;;35.33;;
24739;SDS011;45234;48.148;17.128;2024-03-02T11:48:34;54.95;;;36.67;;
24739;SDS011;45234;48.148;17.128;2024-03-02T11:51:05;53.78;;;35.63;;
24739;SDS011;45234;48.148;17.128;2024-03-02T11:53:32;53.85;;;35.05;;
24739;SDS011;45234;48.148;17.128;2024-03-02T11:56:01;52.25;;;36.58;;
24739;SDS011;45234;48.148;17.128;2024-03-02T11:58:28;54.75;;;36.17;;
24739;SDS011;45234;48.148;17.128;2024-03-02T12:00:56;52.67;;;33.50;;
24739;SDS011;45234;48.148;17.128;2024-03-02T12:03:24;53.53;;;35.33;;
24739;SDS011;45234;48.148;17.128;2024-03-02T12:05:52;52.88;;;35.58;;
24739;SDS011;45234;48.148;17.128;2024-03-02T12:08:20;56.03;;;35.53;;
24739;SDS011;45234;48.148;17.128;2024-03-02T12:11:00;54.63;;;35.92;;
24739;SDS011;45234;48.148;17.128;2024-03-02T12:13:29;61.40;;;37.72;;
24739;SDS011;45234;48.148;17.128;2024-03-02T12:15:56;59.30;;;39.33;;
24739;SDS011;45234;48.148;17.128;2024-03-02T12:18:24;54.78;;;36.50;;
24739;SDS011;45234;48.148;17.128;2024-03-02T12:20:52;57.03;;;38.00;;
24739;SDS011;45234;48.148;17.128;2024-03-02T12:23:23;57.60;;;37.63;;
24739;SDS011;45234;48.148;17.128;2024-03-02T12:25:50;54.90;;;36.25;;
24739;SDS011;45234;48.148;17.128;2024-03-02T12:28:17;53.88;;;36.58;;
24739;SDS011;45234;48.148;17.128;2024-03-02T12:30:45;54.00;;;36.53;;
24739;SDS011;45234;48.148;17.128;2024-03-02T12:33:13;57.50;;;37.92;;
24739;SDS011;45234;48.148;17.128;2024-03-02T12:35:40;54.85;;;35.92;;
24739;SDS011;45234;48.148;17.128;2024-03-02T12:38:08;54.20;;;36.38;;
24739;SDS011;45234;48.148;17.128;2024-03-02T12:40:37;57.63;;;35.30;;
24739;SDS011;45234;48.148;17.128;2024-03-02T12:43:04;54.63;;;35.53;;
24739;SDS011;45234;48.148;17.128;2024-03-02T12:45:33;53.88;;;35.67;;
24739;SDS011;45234;48.148;17.128;2024-03-02T12:48:00;52.55;;;35.10;;
24739;SDS011;45234;48.148;17.128;2024-03-02T12:50:28;49.13;;;33.70;;
24739;SDS011;45234;48.148;17.128;2024-03-02T12:52:55;50.97;;;34.47;;
24739;SDS011;45234;48.148;17.128;2024-03-02T12:55:22;51.05;;;34.50;;
24739;SDS011;45234;48.148;17.128;2024-03-02T12:57:51;48.35;;;32.92;;
24739;SDS011;45234;48.148;17.128;2024-03-02T13:00:19;48.08;;;32.83;;
24739;SDS011;45234;48.148;17.128;2024-03-02T13:02:49;49.08;;;32.35;;
24739;SDS011;45234;48.148;17.128;2024-03-02T13:05:17;44.38;;;30.33;;
24739;SDS011;45234;48.148;17.128;2024-03-02T13:07:46;47.38;;;32.25;;
24739;SDS011;45234;48.148;17.128;2024-03-02T13:10:14;51.10;;;33.40;;
24739;SDS011;45234;48.148;17.128;2024-03-02T13:12:42;49.38;;;33.50;;
24739;SDS011;45234;48.148;17.128;2024-03-02T13:15:09;47.15;;;32.33;;
24739;SDS011;45234;48.148;17.128;2024-03-02T13:17:42;45.35;;;29.55;;
24739;SDS011;45234;48.148;17.128;2024-03-02T13:20:10;41.45;;;27.15;;
24739;SDS011;45234;48.148;17.128;2024-03-02T13:22:36;39.83;;;26.75;;
24739;SDS011;45234;48.148;17.128;2024-03-02T13:25:03;41.85;;;27.33;;
24739;SDS011;45234;48.148;17.128;2024-03-02T13:27:32;37.60;;;25.30;;
24739;SDS011;45234;48.148;17.128;2024-03-02T13:29:59;35.60;;;24.55;;
24739;SDS011;45234;48.148;17.128;2024-03-02T13:32:28;36.50;;;24.13;;
24739;SDS011;45234;48.148;17.128;2024-03-02T13:34:55;33.05;;;22.92;;
24739;SDS011;45234;48.148;17.128;2024-03-02T13:37:21;35.38;;;24.48;;
24739;SDS011;45234;48.148;17.128;2024-03-02T13:39:48;34.97;;;24.55;;
24739;SDS011;45234;48.148;17.128;2024-03-02T13:42:15;32.45;;;23.65;;
24739;SDS011;45234;48.148;17.128;2024-03-02T13:44:43;36.80;;;26.08;;
24739;SDS011;45234;48.148;17.128;2024-03-02T13:47:15;33.42;;;23.52;;
24739;SDS011;45234;48.148;17.128;2024-03-02T13:49:42;31.92;;;23.15;;
24739;SDS011;45234;48.148;17.128;2024-03-02T13:52:11;32.05;;;23.40;;
24739;SDS011;45234;48.148;17.128;2024-03-02T13:54:43;31.48;;;23.10;;
24739;SDS011;45234;48.148;17.128;2024-03-02T13:57:11;30.00;;;22.15;;
24739;SDS011;45234;48.148;17.128;2024-03-02T13:59:39;27.90;;;21.15;;
24739;SDS011;45234;48.148;17.128;2024-03-02T14:02:08;26.00;;;20.17;;
24739;SDS011;45234;48.148;17.128;2024-03-02T14:04:35;25.08;;;19.83;;
24739;SDS011;45234;48.148;17.128;2024-03-02T14:07:03;26.10;;;20.50;;
24739;SDS011;45234;48.148;17.128;2024-03-02T14:09:32;26.35;;;19.65;;
24739;SDS011;45234;48.148;17.128;2024-03-02T14:11:59;27.05;;;19.17;;
24739;SDS011;45234;48.148;17.128;2024-03-02T14:14:26;24.70;;;17.65;;
24739;SDS011;45234;48.148;17.128;2024-03-02T14:16:56;28.75;;;20.42;;